sensor_id;sensor_type;location;lat;lon;timestamp;temperature;humidity
25556;DHT22;13447;57.174;-2.112;2023-06-22T00:01:19;16.70;99.90
25556;DHT22;13447;57.174;-2.112;2023-06-22T00:03:46;16.80;99.90
25556;DHT22;13447;57.174;-2.112;2023-06-22T00:06:13;16.80;99.90
25556;DHT22;13447;57.174;-2.112;2023-06-22T00:08:40;16.70;99.90
25556;DHT22;13447;57.174;-2.112;2023-06-22T00:11:07;16.70;99.90
25556;DHT22;13447;57.174;-2.112;2023-06-22T00:13:33;16.70;99.90
25556;DHT22;13447;57.174;-2.112;2023-06-22T00:16:00;16.60;99.90
25556;DHT22;13447;57.174;-2.112;2023-06-22T00:18:27;16.50;99.90
25556;DHT22;13447;57.174;-2.112;2023-06-22T00:20:55;16.50;99.90
25556;DHT22;13447;57.174;-2.112;2023-06-22T00:23:24;16.50;99.90
25556;DHT22;13447;57.174;-2.112;2023-06-22T00:25:51;16.50;99.90
25556;DHT22;13447;57.174;-2.112;2023-06-22T00:28:18;16.40;99.90
25556;DHT22;13447;57.174;-2.112;2023-06-22T00:30:45;16.50;99.90
25556;DHT22;13447;57.174;-2.112;2023-06-22T00:33:12;16.40;99.90
25556;DHT22;13447;57.174;-2.112;2023-06-22T00:35:39;16.40;99.90
25556;DHT22;13447;57.174;-2.112;2023-06-22T00:38:08;16.50;99.90
25556;DHT22;13447;57.174;-2.112;2023-06-22T00:40:35;16.40;99.90
25556;DHT22;13447;57.174;-2.112;2023-06-22T00:43:02;16.50;99.90
25556;DHT22;13447;57.174;-2.112;2023-06-22T00:45:29;16.40;99.90
25556;DHT22;13447;57.174;-2.112;2023-06-22T00:47:56;16.50;99.90
25556;DHT22;13447;57.174;-2.112;2023-06-22T00:50:25;16.50;99.90
25556;DHT22;13447;57.174;-2.112;2023-06-22T00:52:54;16.60;99.90
25556;DHT22;13447;57.174;-2.112;2023-06-22T00:55:23;16.70;99.90
25556;DHT22;13447;57.174;-2.112;2023-06-22T00:57:50;16.70;99.90
25556;DHT22;13447;57.174;-2.112;2023-06-22T01:00:17;16.70;99.90
25556;DHT22;13447;57.174;-2.112;2023-06-22T01:02:46;16.70;98.30
25556;DHT22;13447;57.174;-2.112;2023-06-22T01:05:13;16.70;45.90
25556;DHT22;13447;57.174;-2.112;2023-06-22T01:07:56;16.70;22.20
25556;DHT22;13447;57.174;-2.112;2023-06-22T01:12:58;16.70;1.00
25556;DHT22;13447;57.174;-2.112;2023-06-22T01:15:39;16.70;1.00
25556;DHT22;13447;57.174;-2.112;2023-06-22T01:18:06;16.70;1.00
25556;DHT22;13447;57.174;-2.112;2023-06-22T01:20:35;16.60;1.00
25556;DHT22;13447;57.174;-2.112;2023-06-22T01:23:05;16.60;1.00
25556;DHT22;13447;57.174;-2.112;2023-06-22T01:25:36;16.60;1.00
25556;DHT22;13447;57.174;-2.112;2023-06-22T01:30:48;16.60;1.00
25556;DHT22;13447;57.174;-2.112;2023-06-22T01:33:15;16.60;1.00
25556;DHT22;13447;57.174;-2.112;2023-06-22T01:35:43;16.50;1.00
25556;DHT22;13447;57.174;-2.112;2023-06-22T01:38:10;16.50;1.00
25556;DHT22;13447;57.174;-2.112;2023-06-22T01:40:37;16.30;1.00
25556;DHT22;13447;57.174;-2.112;2023-06-22T01:43:04;16.20;1.00
25556;DHT22;13447;57.174;-2.112;2023-06-22T01:45:31;16.10;1.40
25556;DHT22;13447;57.174;-2.112;2023-06-22T01:47:58;16.10;1.00
25556;DHT22;13447;57.174;-2.112;2023-06-22T01:50:25;16.00;3.50
25556;DHT22;13447;57.174;-2.112;2023-06-22T01:52:52;16.10;12.60
25556;DHT22;13447;57.174;-2.112;2023-06-22T01:55:18;16.10;29.70
25556;DHT22;13447;57.174;-2.112;2023-06-22T01:57:45;16.00;15.30
25556;DHT22;13447;57.174;-2.112;2023-06-22T02:00:14;15.90;15.60
25556;DHT22;13447;57.174;-2.112;2023-06-22T02:02:49;15.80;20.40
25556;DHT22;13447;57.174;-2.112;2023-06-22T02:05:18;15.70;34.20
25556;DHT22;13447;57.174;-2.112;2023-06-22T02:10:31;15.80;45.40
25556;DHT22;13447;57.174;-2.112;2023-06-22T02:12:59;15.90;66.40
25556;DHT22;13447;57.174;-2.112;2023-06-22T02:15:26;15.90;28.10
25556;DHT22;13447;57.174;-2.112;2023-06-22T02:17:53;15.90;45.80
25556;DHT22;13447;57.174;-2.112;2023-06-22T02:20:20;15.90;46.90
25556;DHT22;13447;57.174;-2.112;2023-06-22T02:22:47;15.90;7.10
25556;DHT22;13447;57.174;-2.112;2023-06-22T02:25:14;15.80;22.50
25556;DHT22;13447;57.174;-2.112;2023-06-22T02:27:41;15.80;34.10
25556;DHT22;13447;57.174;-2.112;2023-06-22T02:30:08;15.80;24.90
25556;DHT22;13447;57.174;-2.112;2023-06-22T02:32:36;15.80;1.00
25556;DHT22;13447;57.174;-2.112;2023-06-22T02:35:02;15.80;13.70
25556;DHT22;13447;57.174;-2.112;2023-06-22T02:37:32;15.70;37.50
25556;DHT22;13447;57.174;-2.112;2023-06-22T02:39:59;15.60;70.30
25556;DHT22;13447;57.174;-2.112;2023-06-22T02:42:26;15.60;70.10
25556;DHT22;13447;57.174;-2.112;2023-06-22T02:44:53;15.60;50.40
25556;DHT22;13447;57.174;-2.112;2023-06-22T02:47:20;15.60;81.80
25556;DHT22;13447;57.174;-2.112;2023-06-22T02:49:46;15.60;99.90
25556;DHT22;13447;57.174;-2.112;2023-06-22T02:52:13;15.40;99.90
25556;DHT22;13447;57.174;-2.112;2023-06-22T02:54:40;15.40;99.90
25556;DHT22;13447;57.174;-2.112;2023-06-22T02:57:07;15.40;99.90
25556;DHT22;13447;57.174;-2.112;2023-06-22T02:59:40;15.40;99.90
25556;DHT22;13447;57.174;-2.112;2023-06-22T03:02:10;15.40;99.90
25556;DHT22;13447;57.174;-2.112;2023-06-22T03:04:37;15.40;99.90
25556;DHT22;13447;57.174;-2.112;2023-06-22T03:07:04;15.40;99.90
25556;DHT22;13447;57.174;-2.112;2023-06-22T03:09:32;15.40;99.90
25556;DHT22;13447;57.174;-2.112;2023-06-22T03:11:59;15.50;96.70
25556;DHT22;13447;57.174;-2.112;2023-06-22T03:14:26;15.50;99.90
25556;DHT22;13447;57.174;-2.112;2023-06-22T03:16:53;15.50;85.40
25556;DHT22;13447;57.174;-2.112;2023-06-22T03:19:20;15.50;60.10
25556;DHT22;13447;57.174;-2.112;2023-06-22T03:21:48;15.40;23.20
25556;DHT22;13447;57.174;-2.112;2023-06-22T03:24:15;15.30;36.80
25556;DHT22;13447;57.174;-2.112;2023-06-22T03:26:41;15.20;92.60
25556;DHT22;13447;57.174;-2.112;2023-06-22T03:29:08;15.30;99.90
25556;DHT22;13447;57.174;-2.112;2023-06-22T03:31:35;15.20;99.90
25556;DHT22;13447;57.174;-2.112;2023-06-22T03:34:02;15.20;99.90
25556;DHT22;13447;57.174;-2.112;2023-06-22T03:36:29;15.10;99.90
25556;DHT22;13447;57.174;-2.112;2023-06-22T03:38:56;15.10;99.90
25556;DHT22;13447;57.174;-2.112;2023-06-22T03:41:22;15.00;99.90
25556;DHT22;13447;57.174;-2.112;2023-06-22T03:43:49;14.90;91.90
25556;DHT22;13447;57.174;-2.112;2023-06-22T03:46:16;14.90;95.80
25556;DHT22;13447;57.174;-2.112;2023-06-22T03:48:43;14.80;99.90
25556;DHT22;13447;57.174;-2.112;2023-06-22T03:51:09;14.80;99.90
25556;DHT22;13447;57.174;-2.112;2023-06-22T03:53:36;14.80;99.90
25556;DHT22;13447;57.174;-2.112;2023-06-22T03:56:03;14.80;99.90
25556;DHT22;13447;57.174;-2.112;2023-06-22T03:58:30;14.80;99.90
25556;DHT22;13447;57.174;-2.112;2023-06-22T04:00:59;14.80;99.90
25556;DHT22;13447;57.174;-2.112;2023-06-22T04:03:26;14.90;92.10
25556;DHT22;13447;57.174;-2.112;2023-06-22T04:05:53;14.90;88.00
25556;DHT22;13447;57.174;-2.112;2023-06-22T04:08:20;14.90;99.90
25556;DHT22;13447;57.174;-2.112;2023-06-22T04:10:47;15.00;99.90
25556;DHT22;13447;57.174;-2.112;2023-06-22T04:13:14;15.00;90.70
25556;DHT22;13447;57.174;-2.112;2023-06-22T04:15:40;15.10;46.90
25556;DHT22;13447;57.174;-2.112;2023-06-22T04:18:07;15.00;34.50
25556;DHT22;13447;57.174;-2.112;2023-06-22T04:20:34;15.00;14.40
25556;DHT22;13447;57.174;-2.112;2023-06-22T04:23:01;15.00;9.60
25556;DHT22;13447;57.174;-2.112;2023-06-22T04:25:28;15.00;3.20
25556;DHT22;13447;57.174;-2.112;2023-06-22T04:27:55;15.00;1.00
25556;DHT22;13447;57.174;-2.112;2023-06-22T04:30:22;15.00;3.40
25556;DHT22;13447;57.174;-2.112;2023-06-22T04:32:48;15.00;1.00
25556;DHT22;13447;57.174;-2.112;2023-06-22T04:35:24;15.00;9.40
25556;DHT22;13447;57.174;-2.112;2023-06-22T04:37:52;15.10;1.00
25556;DHT22;13447;57.174;-2.112;2023-06-22T04:40:22;15.10;1.00
25556;DHT22;13447;57.174;-2.112;2023-06-22T04:42:49;15.00;1.00
25556;DHT22;13447;57.174;-2.112;2023-06-22T04:45:20;15.10;1.00
25556;DHT22;13447;57.174;-2.112;2023-06-22T04:47:47;15.20;1.00
25556;DHT22;13447;57.174;-2.112;2023-06-22T04:50:14;15.20;1.00
25556;DHT22;13447;57.174;-2.112;2023-06-22T04:52:41;15.30;1.00
25556;DHT22;13447;57.174;-2.112;2023-06-22T04:55:08;15.30;1.00
25556;DHT22;13447;57.174;-2.112;2023-06-22T04:57:35;15.30;1.00
25556;DHT22;13447;57.174;-2.112;2023-06-22T05:00:05;15.30;1.00
25556;DHT22;13447;57.174;-2.112;2023-06-22T05:02:39;15.30;1.00
25556;DHT22;13447;57.174;-2.112;2023-06-22T05:05:06;15.30;1.00
25556;DHT22;13447;57.174;-2.112;2023-06-22T05:07:34;15.20;1.00
25556;DHT22;13447;57.174;-2.112;2023-06-22T05:10:01;15.30;1.00
25556;DHT22;13447;57.174;-2.112;2023-06-22T05:12:28;15.30;1.00
25556;DHT22;13447;57.174;-2.112;2023-06-22T05:14:56;15.30;1.00
25556;DHT22;13447;57.174;-2.112;2023-06-22T05:17:22;15.20;1.00
25556;DHT22;13447;57.174;-2.112;2023-06-22T05:19:49;15.20;1.00
25556;DHT22;13447;57.174;-2.112;2023-06-22T05:22:16;15.10;1.00
25556;DHT22;13447;57.174;-2.112;2023-06-22T05:24:43;15.10;1.00
25556;DHT22;13447;57.174;-2.112;2023-06-22T05:27:10;15.10;1.00
25556;DHT22;13447;57.174;-2.112;2023-06-22T05:29:37;15.10;1.00
25556;DHT22;13447;57.174;-2.112;2023-06-22T05:32:04;15.10;1.00
25556;DHT22;13447;57.174;-2.112;2023-06-22T05:34:31;15.10;1.00
25556;DHT22;13447;57.174;-2.112;2023-06-22T05:36:57;15.10;1.00
25556;DHT22;13447;57.174;-2.112;2023-06-22T05:39:27;15.00;1.00
25556;DHT22;13447;57.174;-2.112;2023-06-22T05:41:54;15.00;1.00
25556;DHT22;13447;57.174;-2.112;2023-06-22T05:44:21;15.00;1.00
25556;DHT22;13447;57.174;-2.112;2023-06-22T05:46:47;15.00;1.00
25556;DHT22;13447;57.174;-2.112;2023-06-22T05:49:15;15.00;1.00
25556;DHT22;13447;57.174;-2.112;2023-06-22T05:51:42;15.10;1.00
25556;DHT22;13447;57.174;-2.112;2023-06-22T05:54:09;15.30;1.00
25556;DHT22;13447;57.174;-2.112;2023-06-22T05:56:36;15.40;1.00
25556;DHT22;13447;57.174;-2.112;2023-06-22T05:59:03;15.50;1.00
25556;DHT22;13447;57.174;-2.112;2023-06-22T06:01:30;15.50;1.00
25556;DHT22;13447;57.174;-2.112;2023-06-22T06:04:02;15.50;1.00
25556;DHT22;13447;57.174;-2.112;2023-06-22T06:06:31;15.40;1.00
25556;DHT22;13447;57.174;-2.112;2023-06-22T06:08:58;15.30;1.00
25556;DHT22;13447;57.174;-2.112;2023-06-22T06:11:26;15.30;1.00
25556;DHT22;13447;57.174;-2.112;2023-06-22T06:13:53;15.30;1.00
25556;DHT22;13447;57.174;-2.112;2023-06-22T06:16:20;15.40;1.00
25556;DHT22;13447;57.174;-2.112;2023-06-22T06:18:46;15.50;1.00
25556;DHT22;13447;57.174;-2.112;2023-06-22T06:21:15;15.60;1.00
25556;DHT22;13447;57.174;-2.112;2023-06-22T06:23:42;15.70;1.00
25556;DHT22;13447;57.174;-2.112;2023-06-22T06:26:08;15.80;1.00
25556;DHT22;13447;57.174;-2.112;2023-06-22T06:28:35;15.90;1.00
25556;DHT22;13447;57.174;-2.112;2023-06-22T06:31:02;16.00;1.00
25556;DHT22;13447;57.174;-2.112;2023-06-22T06:33:29;16.10;1.00
25556;DHT22;13447;57.174;-2.112;2023-06-22T06:35:58;16.20;1.00
25556;DHT22;13447;57.174;-2.112;2023-06-22T06:38:25;16.30;1.00
25556;DHT22;13447;57.174;-2.112;2023-06-22T06:40:51;16.40;1.00
25556;DHT22;13447;57.174;-2.112;2023-06-22T06:43:18;16.50;1.00
25556;DHT22;13447;57.174;-2.112;2023-06-22T06:45:45;16.60;1.00
25556;DHT22;13447;57.174;-2.112;2023-06-22T06:48:12;16.70;1.00
25556;DHT22;13447;57.174;-2.112;2023-06-22T06:50:39;16.60;3.30
25556;DHT22;13447;57.174;-2.112;2023-06-22T06:53:06;16.70;1.00
25556;DHT22;13447;57.174;-2.112;2023-06-22T06:55:32;16.80;1.00
25556;DHT22;13447;57.174;-2.112;2023-06-22T06:57:59;16.90;1.00
25556;DHT22;13447;57.174;-2.112;2023-06-22T07:00:26;17.10;12.40
25556;DHT22;13447;57.174;-2.112;2023-06-22T07:02:54;17.10;38.90
25556;DHT22;13447;57.174;-2.112;2023-06-22T07:05:21;17.30;81.70
25556;DHT22;13447;57.174;-2.112;2023-06-22T07:07:48;17.30;99.90
25556;DHT22;13447;57.174;-2.112;2023-06-22T07:10:15;17.40;99.90
25556;DHT22;13447;57.174;-2.112;2023-06-22T07:12:42;17.40;99.90
25556;DHT22;13447;57.174;-2.112;2023-06-22T07:15:09;17.50;26.50
25556;DHT22;13447;57.174;-2.112;2023-06-22T07:17:36;17.50;42.20
25556;DHT22;13447;57.174;-2.112;2023-06-22T07:20:04;17.60;29.20
25556;DHT22;13447;57.174;-2.112;2023-06-22T07:22:38;17.60;37.30
25556;DHT22;13447;57.174;-2.112;2023-06-22T07:25:06;17.80;27.80
25556;DHT22;13447;57.174;-2.112;2023-06-22T07:27:36;17.90;1.00
25556;DHT22;13447;57.174;-2.112;2023-06-22T07:30:04;17.90;1.00
25556;DHT22;13447;57.174;-2.112;2023-06-22T07:32:31;18.00;1.00
25556;DHT22;13447;57.174;-2.112;2023-06-22T07:34:58;18.10;1.00
25556;DHT22;13447;57.174;-2.112;2023-06-22T07:37:25;18.20;1.00
25556;DHT22;13447;57.174;-2.112;2023-06-22T07:39:54;18.20;1.00
25556;DHT22;13447;57.174;-2.112;2023-06-22T07:42:25;18.20;1.00
25556;DHT22;13447;57.174;-2.112;2023-06-22T07:44:52;18.30;1.00
25556;DHT22;13447;57.174;-2.112;2023-06-22T07:47:19;18.20;1.00
25556;DHT22;13447;57.174;-2.112;2023-06-22T07:49:46;18.30;1.00
25556;DHT22;13447;57.174;-2.112;2023-06-22T07:52:13;18.40;1.00
25556;DHT22;13447;57.174;-2.112;2023-06-22T07:54:39;18.40;1.00
25556;DHT22;13447;57.174;-2.112;2023-06-22T07:57:06;18.50;1.00
25556;DHT22;13447;57.174;-2.112;2023-06-22T07:59:33;18.60;1.00
25556;DHT22;13447;57.174;-2.112;2023-06-22T08:02:00;18.60;1.00
25556;DHT22;13447;57.174;-2.112;2023-06-22T08:04:27;18.70;1.00
25556;DHT22;13447;57.174;-2.112;2023-06-22T08:06:55;18.80;5.90
25556;DHT22;13447;57.174;-2.112;2023-06-22T08:09:22;19.00;2.00
25556;DHT22;13447;57.174;-2.112;2023-06-22T08:11:49;19.10;17.90
25556;DHT22;13447;57.174;-2.112;2023-06-22T08:14:15;19.10;2.70
25556;DHT22;13447;57.174;-2.112;2023-06-22T08:16:42;19.20;77.10
25556;DHT22;13447;57.174;-2.112;2023-06-22T08:19:09;19.30;1.00
25556;DHT22;13447;57.174;-2.112;2023-06-22T08:21:36;19.20;1.00
25556;DHT22;13447;57.174;-2.112;2023-06-22T08:24:03;19.20;1.00
25556;DHT22;13447;57.174;-2.112;2023-06-22T08:26:29;19.30;1.00
25556;DHT22;13447;57.174;-2.112;2023-06-22T08:28:56;19.50;1.00
25556;DHT22;13447;57.174;-2.112;2023-06-22T08:31:23;19.60;1.00
25556;DHT22;13447;57.174;-2.112;2023-06-22T08:33:50;19.70;1.00
25556;DHT22;13447;57.174;-2.112;2023-06-22T08:36:17;19.70;1.00
25556;DHT22;13447;57.174;-2.112;2023-06-22T08:38:43;19.80;1.00
25556;DHT22;13447;57.174;-2.112;2023-06-22T08:41:11;19.80;1.00
25556;DHT22;13447;57.174;-2.112;2023-06-22T08:43:38;19.90;1.00
25556;DHT22;13447;57.174;-2.112;2023-06-22T08:46:04;19.90;1.00
25556;DHT22;13447;57.174;-2.112;2023-06-22T08:48:31;20.00;1.00
25556;DHT22;13447;57.174;-2.112;2023-06-22T08:50:58;20.10;1.00
25556;DHT22;13447;57.174;-2.112;2023-06-22T08:53:25;20.10;1.00
25556;DHT22;13447;57.174;-2.112;2023-06-22T08:55:52;19.90;1.00
25556;DHT22;13447;57.174;-2.112;2023-06-22T08:58:18;19.90;1.00
25556;DHT22;13447;57.174;-2.112;2023-06-22T09:00:47;19.60;1.00
25556;DHT22;13447;57.174;-2.112;2023-06-22T09:03:14;19.50;1.00
25556;DHT22;13447;57.174;-2.112;2023-06-22T09:05:41;19.40;1.00
25556;DHT22;13447;57.174;-2.112;2023-06-22T09:08:08;19.30;1.00
25556;DHT22;13447;57.174;-2.112;2023-06-22T09:10:35;19.30;1.00
25556;DHT22;13447;57.174;-2.112;2023-06-22T09:13:02;19.40;1.00
25556;DHT22;13447;57.174;-2.112;2023-06-22T09:15:28;19.40;1.00
25556;DHT22;13447;57.174;-2.112;2023-06-22T09:17:56;19.20;1.00
25556;DHT22;13447;57.174;-2.112;2023-06-22T09:20:24;19.00;1.00
25556;DHT22;13447;57.174;-2.112;2023-06-22T09:22:51;19.20;1.00
25556;DHT22;13447;57.174;-2.112;2023-06-22T09:25:17;19.30;1.00
25556;DHT22;13447;57.174;-2.112;2023-06-22T09:27:47;19.50;1.00
25556;DHT22;13447;57.174;-2.112;2023-06-22T09:30:14;20.00;1.00
25556;DHT22;13447;57.174;-2.112;2023-06-22T09:32:41;20.40;1.00
25556;DHT22;13447;57.174;-2.112;2023-06-22T09:35:08;20.90;1.00
25556;DHT22;13447;57.174;-2.112;2023-06-22T09:37:38;21.40;1.00
25556;DHT22;13447;57.174;-2.112;2023-06-22T09:40:06;21.20;1.00
25556;DHT22;13447;57.174;-2.112;2023-06-22T09:42:36;21.60;1.00
25556;DHT22;13447;57.174;-2.112;2023-06-22T09:45:03;21.80;1.00
25556;DHT22;13447;57.174;-2.112;2023-06-22T09:47:30;22.20;1.00
25556;DHT22;13447;57.174;-2.112;2023-06-22T09:49:57;22.40;1.00
25556;DHT22;13447;57.174;-2.112;2023-06-22T09:52:26;22.50;1.00
25556;DHT22;13447;57.174;-2.112;2023-06-22T09:55:12;22.70;1.00
25556;DHT22;13447;57.174;-2.112;2023-06-22T09:57:39;22.80;1.00
25556;DHT22;13447;57.174;-2.112;2023-06-22T10:00:06;23.00;1.00
25556;DHT22;13447;57.174;-2.112;2023-06-22T10:02:35;22.80;1.00
25556;DHT22;13447;57.174;-2.112;2023-06-22T10:05:02;21.90;1.00
25556;DHT22;13447;57.174;-2.112;2023-06-22T10:07:30;21.60;1.00
25556;DHT22;13447;57.174;-2.112;2023-06-22T10:09:57;21.30;1.00
25556;DHT22;13447;57.174;-2.112;2023-06-22T10:12:23;21.20;1.00
25556;DHT22;13447;57.174;-2.112;2023-06-22T10:14:50;21.40;1.00
25556;DHT22;13447;57.174;-2.112;2023-06-22T10:17:17;21.50;1.00
25556;DHT22;13447;57.174;-2.112;2023-06-22T10:19:44;21.90;1.00
25556;DHT22;13447;57.174;-2.112;2023-06-22T10:22:11;21.40;1.00
25556;DHT22;13447;57.174;-2.112;2023-06-22T10:24:38;21.00;1.00
25556;DHT22;13447;57.174;-2.112;2023-06-22T10:27:11;20.40;1.00
25556;DHT22;13447;57.174;-2.112;2023-06-22T10:29:38;20.30;1.00
25556;DHT22;13447;57.174;-2.112;2023-06-22T10:32:05;20.20;1.00
25556;DHT22;13447;57.174;-2.112;2023-06-22T10:34:32;20.10;1.00
25556;DHT22;13447;57.174;-2.112;2023-06-22T10:36:58;19.90;1.00
25556;DHT22;13447;57.174;-2.112;2023-06-22T10:39:25;19.70;1.00
25556;DHT22;13447;57.174;-2.112;2023-06-22T10:41:52;19.50;1.00
25556;DHT22;13447;57.174;-2.112;2023-06-22T10:44:19;19.20;1.00
25556;DHT22;13447;57.174;-2.112;2023-06-22T10:46:47;19.10;1.00
25556;DHT22;13447;57.174;-2.112;2023-06-22T10:49:13;19.10;1.00
25556;DHT22;13447;57.174;-2.112;2023-06-22T10:51:40;18.80;1.00
25556;DHT22;13447;57.174;-2.112;2023-06-22T10:54:08;18.80;1.00
25556;DHT22;13447;57.174;-2.112;2023-06-22T10:56:35;18.80;1.00
25556;DHT22;13447;57.174;-2.112;2023-06-22T10:59:01;19.00;1.00
25556;DHT22;13447;57.174;-2.112;2023-06-22T11:01:28;19.00;1.00
25556;DHT22;13447;57.174;-2.112;2023-06-22T11:04:01;19.10;1.00
25556;DHT22;13447;57.174;-2.112;2023-06-22T11:06:28;19.10;1.00
25556;DHT22;13447;57.174;-2.112;2023-06-22T11:08:55;19.30;1.00
25556;DHT22;13447;57.174;-2.112;2023-06-22T11:11:34;19.50;99.90
25556;DHT22;13447;57.174;-2.112;2023-06-22T11:14:01;19.80;1.00
25556;DHT22;13447;57.174;-2.112;2023-06-22T11:16:28;20.30;1.00
25556;DHT22;13447;57.174;-2.112;2023-06-22T11:18:54;20.70;1.00
25556;DHT22;13447;57.174;-2.112;2023-06-22T11:21:21;21.00;99.90
25556;DHT22;13447;57.174;-2.112;2023-06-22T11:23:48;21.50;99.90
25556;DHT22;13447;57.174;-2.112;2023-06-22T11:26:15;21.90;99.90
25556;DHT22;13447;57.174;-2.112;2023-06-22T11:28:42;21.90;1.00
25556;DHT22;13447;57.174;-2.112;2023-06-22T11:31:08;22.90;1.00
25556;DHT22;13447;57.174;-2.112;2023-06-22T11:33:51;23.30;1.00
25556;DHT22;13447;57.174;-2.112;2023-06-22T11:36:17;23.20;1.00
25556;DHT22;13447;57.174;-2.112;2023-06-22T11:38:44;23.00;1.00
25556;DHT22;13447;57.174;-2.112;2023-06-22T11:41:11;22.80;1.00
25556;DHT22;13447;57.174;-2.112;2023-06-22T11:43:38;22.40;1.00
25556;DHT22;13447;57.174;-2.112;2023-06-22T11:46:05;22.00;1.00
25556;DHT22;13447;57.174;-2.112;2023-06-22T11:48:32;21.70;1.00
25556;DHT22;13447;57.174;-2.112;2023-06-22T11:50:59;21.50;1.00
25556;DHT22;13447;57.174;-2.112;2023-06-22T11:53:26;21.10;1.00
25556;DHT22;13447;57.174;-2.112;2023-06-22T11:55:53;20.80;1.00
25556;DHT22;13447;57.174;-2.112;2023-06-22T11:58:22;20.50;1.00
25556;DHT22;13447;57.174;-2.112;2023-06-22T12:00:49;20.20;1.00
25556;DHT22;13447;57.174;-2.112;2023-06-22T12:03:18;20.20;1.00
25556;DHT22;13447;57.174;-2.112;2023-06-22T12:05:45;20.20;1.00
25556;DHT22;13447;57.174;-2.112;2023-06-22T12:08:12;20.00;1.00
25556;DHT22;13447;57.174;-2.112;2023-06-22T12:10:40;20.20;1.00
25556;DHT22;13447;57.174;-2.112;2023-06-22T12:13:07;20.20;1.00
25556;DHT22;13447;57.174;-2.112;2023-06-22T12:15:34;20.80;1.00
25556;DHT22;13447;57.174;-2.112;2023-06-22T12:18:01;21.20;1.00
25556;DHT22;13447;57.174;-2.112;2023-06-22T12:20:28;21.50;1.00
25556;DHT22;13447;57.174;-2.112;2023-06-22T12:22:55;22.00;1.00
25556;DHT22;13447;57.174;-2.112;2023-06-22T12:25:24;22.70;1.00
25556;DHT22;13447;57.174;-2.112;2023-06-22T12:27:51;22.70;1.00
25556;DHT22;13447;57.174;-2.112;2023-06-22T12:30:18;22.50;1.00
25556;DHT22;13447;57.174;-2.112;2023-06-22T12:32:45;22.20;1.00
25556;DHT22;13447;57.174;-2.112;2023-06-22T12:35:12;21.90;1.00
25556;DHT22;13447;57.174;-2.112;2023-06-22T12:37:41;21.30;1.00
25556;DHT22;13447;57.174;-2.112;2023-06-22T12:40:09;20.90;1.00
25556;DHT22;13447;57.174;-2.112;2023-06-22T12:42:36;20.70;1.00
25556;DHT22;13447;57.174;-2.112;2023-06-22T12:45:03;20.30;99.90
25556;DHT22;13447;57.174;-2.112;2023-06-22T12:47:30;19.70;99.90
25556;DHT22;13447;57.174;-2.112;2023-06-22T12:49:57;19.70;1.00
25556;DHT22;13447;57.174;-2.112;2023-06-22T12:52:24;19.80;1.00
25556;DHT22;13447;57.174;-2.112;2023-06-22T12:54:51;19.70;1.00
25556;DHT22;13447;57.174;-2.112;2023-06-22T12:57:21;19.90;1.00
25556;DHT22;13447;57.174;-2.112;2023-06-22T12:59:48;20.40;1.00
25556;DHT22;13447;57.174;-2.112;2023-06-22T13:02:15;20.40;1.00
25556;DHT22;13447;57.174;-2.112;2023-06-22T13:04:42;20.20;1.00
25556;DHT22;13447;57.174;-2.112;2023-06-22T13:07:10;20.10;1.00
25556;DHT22;13447;57.174;-2.112;2023-06-22T13:09:48;20.00;1.00
25556;DHT22;13447;57.174;-2.112;2023-06-22T13:12:22;19.70;1.00
25556;DHT22;13447;57.174;-2.112;2023-06-22T13:14:49;19.70;1.00
25556;DHT22;13447;57.174;-2.112;2023-06-22T13:17:16;19.30;1.00
25556;DHT22;13447;57.174;-2.112;2023-06-22T13:19:43;19.10;1.00
25556;DHT22;13447;57.174;-2.112;2023-06-22T13:25:12;18.90;1.00
25556;DHT22;13447;57.174;-2.112;2023-06-22T13:27:40;18.80;1.00
25556;DHT22;13447;57.174;-2.112;2023-06-22T13:30:07;18.70;1.00
25556;DHT22;13447;57.174;-2.112;2023-06-22T13:32:36;18.60;99.90
25556;DHT22;13447;57.174;-2.112;2023-06-22T13:35:03;18.40;1.00
25556;DHT22;13447;57.174;-2.112;2023-06-22T13:37:30;18.50;1.00
25556;DHT22;13447;57.174;-2.112;2023-06-22T13:39:57;18.60;1.00
25556;DHT22;13447;57.174;-2.112;2023-06-22T13:42:26;19.20;1.00
25556;DHT22;13447;57.174;-2.112;2023-06-22T13:44:52;19.90;1.00
25556;DHT22;13447;57.174;-2.112;2023-06-22T13:47:19;20.30;1.00
25556;DHT22;13447;57.174;-2.112;2023-06-22T13:49:46;20.50;1.00
25556;DHT22;13447;57.174;-2.112;2023-06-22T13:52:13;20.40;1.00
25556;DHT22;13447;57.174;-2.112;2023-06-22T13:54:40;20.70;1.00
25556;DHT22;13447;57.174;-2.112;2023-06-22T13:57:06;21.00;1.00
25556;DHT22;13447;57.174;-2.112;2023-06-22T13:59:34;21.30;1.00
25556;DHT22;13447;57.174;-2.112;2023-06-22T14:02:01;21.40;1.00
25556;DHT22;13447;57.174;-2.112;2023-06-22T14:04:28;21.00;1.00
25556;DHT22;13447;57.174;-2.112;2023-06-22T14:06:55;20.70;1.00
25556;DHT22;13447;57.174;-2.112;2023-06-22T14:09:23;20.30;1.00
25556;DHT22;13447;57.174;-2.112;2023-06-22T14:11:50;20.10;1.00
25556;DHT22;13447;57.174;-2.112;2023-06-22T14:14:16;19.70;1.00
25556;DHT22;13447;57.174;-2.112;2023-06-22T14:16:43;19.80;1.00
25556;DHT22;13447;57.174;-2.112;2023-06-22T14:19:10;19.80;1.00
25556;DHT22;13447;57.174;-2.112;2023-06-22T14:21:37;19.60;1.00
25556;DHT22;13447;57.174;-2.112;2023-06-22T14:24:03;19.50;1.00
25556;DHT22;13447;57.174;-2.112;2023-06-22T14:26:30;19.40;1.00
25556;DHT22;13447;57.174;-2.112;2023-06-22T14:28:57;19.30;1.00
25556;DHT22;13447;57.174;-2.112;2023-06-22T14:31:24;19.20;1.00
25556;DHT22;13447;57.174;-2.112;2023-06-22T14:33:51;19.20;1.00
25556;DHT22;13447;57.174;-2.112;2023-06-22T14:36:18;19.10;99.90
25556;DHT22;13447;57.174;-2.112;2023-06-22T14:38:45;19.10;1.00
25556;DHT22;13447;57.174;-2.112;2023-06-22T14:41:13;19.30;1.00
25556;DHT22;13447;57.174;-2.112;2023-06-22T14:43:49;19.30;1.00
25556;DHT22;13447;57.174;-2.112;2023-06-22T14:46:19;19.40;1.00
25556;DHT22;13447;57.174;-2.112;2023-06-22T14:48:46;19.20;1.00
25556;DHT22;13447;57.174;-2.112;2023-06-22T14:51:13;19.20;1.00
25556;DHT22;13447;57.174;-2.112;2023-06-22T14:53:43;19.30;1.00
25556;DHT22;13447;57.174;-2.112;2023-06-22T14:56:10;19.30;1.00
25556;DHT22;13447;57.174;-2.112;2023-06-22T14:58:39;19.20;1.00
25556;DHT22;13447;57.174;-2.112;2023-06-22T15:01:06;19.10;1.00
25556;DHT22;13447;57.174;-2.112;2023-06-22T15:03:35;19.00;1.00
25556;DHT22;13447;57.174;-2.112;2023-06-22T15:06:03;18.90;1.00
25556;DHT22;13447;57.174;-2.112;2023-06-22T15:08:30;18.80;1.00
25556;DHT22;13447;57.174;-2.112;2023-06-22T15:11:00;18.80;1.00
25556;DHT22;13447;57.174;-2.112;2023-06-22T15:13:33;18.70;1.00
25556;DHT22;13447;57.174;-2.112;2023-06-22T15:16:01;18.70;1.00
25556;DHT22;13447;57.174;-2.112;2023-06-22T15:18:29;18.60;1.00
25556;DHT22;13447;57.174;-2.112;2023-06-22T15:20:56;18.50;1.00
25556;DHT22;13447;57.174;-2.112;2023-06-22T15:23:24;18.50;1.00
25556;DHT22;13447;57.174;-2.112;2023-06-22T15:25:51;18.50;1.00
25556;DHT22;13447;57.174;-2.112;2023-06-22T15:28:18;18.60;1.00
25556;DHT22;13447;57.174;-2.112;2023-06-22T15:30:45;18.60;1.00
25556;DHT22;13447;57.174;-2.112;2023-06-22T15:33:14;18.40;1.00
25556;DHT22;13447;57.174;-2.112;2023-06-22T15:35:41;18.40;1.00
25556;DHT22;13447;57.174;-2.112;2023-06-22T15:38:08;18.30;1.00
25556;DHT22;13447;57.174;-2.112;2023-06-22T15:40:35;18.20;1.00